sensor_id;sensor_type;location;lat;lon;timestamp;pressure;altitude;pressure_sealevel;temperature;humidity
64211;BME280;50528;48.514;14.394;2023-01-29T00:00:23;94625.92;;;-1.89;80.62
64211;BME280;50528;48.514;14.394;2023-01-29T00:01:17;94628.55;;;-1.93;80.62
64211;BME280;50528;48.514;14.394;2023-01-29T00:01:50;94627.80;;;-1.94;80.87
64211;BME280;50528;48.514;14.394;2023-01-29T00:02:24;94626.44;;;-1.93;80.71
64211;BME280;50528;48.514;14.394;2023-01-29T00:02:57;94625.19;;;-1.92;80.60
64211;BME280;50528;48.514;14.394;2023-01-29T00:03:31;94625.85;;;-1.94;80.64
64211;BME280;50528;48.514;14.394;2023-01-29T00:04:05;94627.80;;;-1.92;80.60
64211;BME280;50528;48.514;14.394;2023-01-29T00:04:38;94615.80;;;-2.00;80.63
64211;BME280;50528;48.514;14.394;2023-01-29T00:05:12;94622.88;;;-1.94;80.91
64211;BME280;50528;48.514;14.394;2023-01-29T00:06:03;94627.20;;;-1.97;80.70
64211;BME280;50528;48.514;14.394;2023-01-29T00:06:38;94625.10;;;-2.02;80.73
64211;BME280;50528;48.514;14.394;2023-01-29T00:07:12;94626.23;;;-2.02;80.79
64211;BME280;50528;48.514;14.394;2023-01-29T00:07:45;94624.56;;;-2.01;80.57
64211;BME280;50528;48.514;14.394;2023-01-29T00:08:19;94622.77;;;-2.04;80.68
64211;BME280;50528;48.514;14.394;2023-01-29T00:08:52;94622.88;;;-2.03;80.82
64211;BME280;50528;48.514;14.394;2023-01-29T00:09:26;94618.73;;;-2.03;80.90
64211;BME280;50528;48.514;14.394;2023-01-29T00:10:00;94619.55;;;-2.02;80.80
64211;BME280;50528;48.514;14.394;2023-01-29T00:10:33;94616.70;;;-2.04;80.67
64211;BME280;50528;48.514;14.394;2023-01-29T00:11:08;94615.64;;;-2.05;80.89
64211;BME280;50528;48.514;14.394;2023-01-29T00:11:41;94614.11;;;-2.09;80.92
64211;BME280;50528;48.514;14.394;2023-01-29T00:12:15;94610.69;;;-2.12;80.93
64211;BME280;50528;48.514;14.394;2023-01-29T00:12:48;94615.18;;;-2.13;80.98
64211;BME280;50528;48.514;14.394;2023-01-29T00:13:21;94614.21;;;-2.12;80.91
64211;BME280;50528;48.514;14.394;2023-01-29T00:13:55;94618.92;;;-2.11;81.01
64211;BME280;50528;48.514;14.394;2023-01-29T00:14:28;94615.98;;;-2.11;81.03
64211;BME280;50528;48.514;14.394;2023-01-29T00:15:02;94620.57;;;-2.10;81.14
64211;BME280;50528;48.514;14.394;2023-01-29T00:15:35;94618.27;;;-2.09;81.00
64211;BME280;50528;48.514;14.394;2023-01-29T00:16:09;94622.61;;;-2.08;80.94
64211;BME280;50528;48.514;14.394;2023-01-29T00:16:42;94622.50;;;-2.07;81.03
64211;BME280;50528;48.514;14.394;2023-01-29T00:17:16;94629.09;;;-2.06;81.06
64211;BME280;50528;48.514;14.394;2023-01-29T00:17:50;94626.31;;;-2.06;81.11
64211;BME280;50528;48.514;14.394;2023-01-29T00:18:24;94625.93;;;-2.05;81.10
64211;BME280;50528;48.514;14.394;2023-01-29T00:18:59;94626.20;;;-2.04;81.14
64211;BME280;50528;48.514;14.394;2023-01-29T00:19:32;94621.05;;;-2.02;81.11
64211;BME280;50528;48.514;14.394;2023-01-29T00:20:06;94623.77;;;-2.03;80.97
64211;BME280;50528;48.514;14.394;2023-01-29T00:20:42;94620.15;;;-2.03;81.12
64211;BME280;50528;48.514;14.394;2023-01-29T00:21:18;94618.11;;;-2.07;81.01
64211;BME280;50528;48.514;14.394;2023-01-29T00:21:52;94618.55;;;-2.03;80.97
64211;BME280;50528;48.514;14.394;2023-01-29T00:22:25;94615.34;;;-2.07;81.09
64211;BME280;50528;48.514;14.394;2023-01-29T00:22:59;94621.48;;;-2.03;81.26
64211;BME280;50528;48.514;14.394;2023-01-29T00:23:33;94622.00;;;-2.03;81.20
64211;BME280;50528;48.514;14.394;2023-01-29T00:24:06;94620.50;;;-2.02;81.19
64211;BME280;50528;48.514;14.394;2023-01-29T00:24:40;94623.89;;;-2.01;80.99
64211;BME280;50528;48.514;14.394;2023-01-29T00:25:13;94626.73;;;-2.02;81.10
64211;BME280;50528;48.514;14.394;2023-01-29T00:25:47;94625.52;;;-2.02;81.10
64211;BME280;50528;48.514;14.394;2023-01-29T00:26:20;94626.48;;;-2.03;81.17
64211;BME280;50528;48.514;14.394;2023-01-29T00:26:55;94626.77;;;-2.01;81.13
64211;BME280;50528;48.514;14.394;2023-01-29T00:27:29;94629.59;;;-2.00;81.08
64211;BME280;50528;48.514;14.394;2023-01-29T00:28:02;94628.12;;;-2.01;80.94
64211;BME280;50528;48.514;14.394;2023-01-29T00:28:36;94632.34;;;-2.00;81.04
64211;BME280;50528;48.514;14.394;2023-01-29T00:29:10;94634.58;;;-1.99;81.01
64211;BME280;50528;48.514;14.394;2023-01-29T00:29:43;94634.87;;;-1.99;80.94
64211;BME280;50528;48.514;14.394;2023-01-29T00:30:35;94634.52;;;-2.01;81.19
64211;BME280;50528;48.514;14.394;2023-01-29T00:31:11;94640.95;;;-2.02;81.18
64211;BME280;50528;48.514;14.394;2023-01-29T00:31:45;94636.80;;;-2.02;81.18
64211;BME280;50528;48.514;14.394;2023-01-29T00:32:21;94632.45;;;-2.01;81.09
64211;BME280;50528;48.514;14.394;2023-01-29T00:32:54;94636.83;;;-2.02;80.78
64211;BME280;50528;48.514;14.394;2023-01-29T00:33:28;94629.80;;;-2.04;80.91
64211;BME280;50528;48.514;14.394;2023-01-29T00:34:01;94634.79;;;-2.02;80.58
64211;BME280;50528;48.514;14.394;2023-01-29T00:34:35;94636.44;;;-2.07;80.93
64211;BME280;50528;48.514;14.394;2023-01-29T00:35:09;94630.08;;;-2.09;80.81
64211;BME280;50528;48.514;14.394;2023-01-29T00:35:43;94631.12;;;-2.11;80.85
64211;BME280;50528;48.514;14.394;2023-01-29T00:36:18;94625.45;;;-2.14;81.02
64211;BME280;50528;48.514;14.394;2023-01-29T00:36:52;94625.06;;;-2.12;81.22
64211;BME280;50528;48.514;14.394;2023-01-29T00:37:37;94624.58;;;-2.12;81.02
64211;BME280;50528;48.514;14.394;2023-01-29T00:38:10;94627.08;;;-2.12;81.22
64211;BME280;50528;48.514;14.394;2023-01-29T00:38:44;94624.48;;;-2.11;81.13
64211;BME280;50528;48.514;14.394;2023-01-29T00:39:28;94622.98;;;-2.10;81.22
64211;BME280;50528;48.514;14.394;2023-01-29T00:40:20;94620.71;;;-2.13;81.17
64211;BME280;50528;48.514;14.394;2023-01-29T00:40:54;94623.20;;;-2.12;81.25
64211;BME280;50528;48.514;14.394;2023-01-29T00:41:47;94618.13;;;-2.15;81.03
64211;BME280;50528;48.514;14.394;2023-01-29T00:42:43;94616.31;;;-2.16;81.04
64211;BME280;50528;48.514;14.394;2023-01-29T00:43:37;94610.88;;;-2.19;81.20
64211;BME280;50528;48.514;14.394;2023-01-29T00:44:29;94614.41;;;-2.18;81.05
64211;BME280;50528;48.514;14.394;2023-01-29T00:45:21;94615.71;;;-2.23;80.85
64211;BME280;50528;48.514;14.394;2023-01-29T00:45:54;94616.48;;;-2.27;81.08
64211;BME280;50528;48.514;14.394;2023-01-29T00:46:28;94617.21;;;-2.28;81.02
64211;BME280;50528;48.514;14.394;2023-01-29T00:47:02;94618.11;;;-2.28;81.06
64211;BME280;50528;48.514;14.394;2023-01-29T00:47:36;94616.98;;;-2.29;81.02
64211;BME280;50528;48.514;14.394;2023-01-29T00:48:10;94617.17;;;-2.29;81.16
64211;BME280;50528;48.514;14.394;2023-01-29T00:48:44;94615.73;;;-2.30;81.23
64211;BME280;50528;48.514;14.394;2023-01-29T00:49:17;94621.77;;;-2.29;81.10
64211;BME280;50528;48.514;14.394;2023-01-29T00:49:51;94618.55;;;-2.31;81.20
64211;BME280;50528;48.514;14.394;2023-01-29T00:50:24;94620.59;;;-2.29;81.20
64211;BME280;50528;48.514;14.394;2023-01-29T00:50:57;94619.41;;;-2.27;81.02
64211;BME280;50528;48.514;14.394;2023-01-29T00:51:31;94623.71;;;-2.29;81.15
64211;BME280;50528;48.514;14.394;2023-01-29T00:52:05;94622.94;;;-2.28;81.17
64211;BME280;50528;48.514;14.394;2023-01-29T00:52:56;94623.87;;;-2.29;81.29
64211;BME280;50528;48.514;14.394;2023-01-29T00:53:30;94625.23;;;-2.29;81.10
64211;BME280;50528;48.514;14.394;2023-01-29T00:54:04;94625.70;;;-2.30;81.17
64211;BME280;50528;48.514;14.394;2023-01-29T00:54:38;94624.88;;;-2.29;81.05
64211;BME280;50528;48.514;14.394;2023-01-29T00:55:12;94625.14;;;-2.28;80.85
64211;BME280;50528;48.514;14.394;2023-01-29T00:55:45;94625.40;;;-2.32;80.86
64211;BME280;50528;48.514;14.394;2023-01-29T00:56:19;94621.61;;;-2.34;80.86
64211;BME280;50528;48.514;14.394;2023-01-29T00:56:52;94624.60;;;-2.37;80.88
64211;BME280;50528;48.514;14.394;2023-01-29T00:57:28;94626.39;;;-2.36;81.21
64211;BME280;50528;48.514;14.394;2023-01-29T00:58:02;94624.50;;;-2.37;81.27
64211;BME280;50528;48.514;14.394;2023-01-29T00:58:35;94628.62;;;-2.36;81.16
64211;BME280;50528;48.514;14.394;2023-01-29T00:59:09;94625.15;;;-2.34;80.92
64211;BME280;50528;48.514;14.394;2023-01-29T00:59:42;94622.31;;;-2.36;81.00
64211;BME280;50528;48.514;14.394;2023-01-29T01:00:17;94618.66;;;-2.39;80.97
64211;BME280;50528;48.514;14.394;2023-01-29T01:00:52;94622.41;;;-2.39;81.02
64211;BME280;50528;48.514;14.394;2023-01-29T01:01:25;94622.70;;;-2.40;81.22
64211;BME280;50528;48.514;14.394;2023-01-29T01:02:18;94624.07;;;-2.40;81.24
64211;BME280;50528;48.514;14.394;2023-01-29T01:03:10;94624.04;;;-2.40;81.16
64211;BME280;50528;48.514;14.394;2023-01-29T01:03:44;94621.60;;;-2.39;81.16
64211;BME280;50528;48.514;14.394;2023-01-29T01:04:18;94621.92;;;-2.39;81.33
64211;BME280;50528;48.514;14.394;2023-01-29T01:04:51;94623.12;;;-2.34;81.02
64211;BME280;50528;48.514;14.394;2023-01-29T01:05:25;94615.83;;;-2.37;80.75
64211;BME280;50528;48.514;14.394;2023-01-29T01:06:06;94624.38;;;-2.36;80.79
64211;BME280;50528;48.514;14.394;2023-01-29T01:06:41;94621.38;;;-2.37;80.78
64211;BME280;50528;48.514;14.394;2023-01-29T01:07:14;94620.60;;;-2.40;80.81
64211;BME280;50528;48.514;14.394;2023-01-29T01:07:50;94618.92;;;-2.42;80.92
64211;BME280;50528;48.514;14.394;2023-01-29T01:08:25;94618.45;;;-2.39;80.85
64211;BME280;50528;48.514;14.394;2023-01-29T01:09:17;94617.72;;;-2.43;80.81
64211;BME280;50528;48.514;14.394;2023-01-29T01:10:18;94614.63;;;-2.49;80.91
64211;BME280;50528;48.514;14.394;2023-01-29T01:11:03;94617.59;;;-2.51;81.08
64211;BME280;50528;48.514;14.394;2023-01-29T01:11:37;94615.22;;;-2.53;81.10
64211;BME280;50528;48.514;14.394;2023-01-29T01:12:11;94612.73;;;-2.51;81.10
64211;BME280;50528;48.514;14.394;2023-01-29T01:12:44;94612.48;;;-2.48;81.18
64211;BME280;50528;48.514;14.394;2023-01-29T01:13:18;94612.89;;;-2.48;80.75
64211;BME280;50528;48.514;14.394;2023-01-29T01:13:51;94614.29;;;-2.52;81.08
64211;BME280;50528;48.514;14.394;2023-01-29T01:14:25;94610.27;;;-2.52;81.08
64211;BME280;50528;48.514;14.394;2023-01-29T01:14:58;94610.40;;;-2.53;81.31
64211;BME280;50528;48.514;14.394;2023-01-29T01:15:37;94609.08;;;-2.53;81.09
64211;BME280;50528;48.514;14.394;2023-01-29T01:16:13;94613.23;;;-2.54;81.16
64211;BME280;50528;48.514;14.394;2023-01-29T01:16:47;94612.44;;;-2.53;80.99
64211;BME280;50528;48.514;14.394;2023-01-29T01:17:21;94614.77;;;-2.52;81.27
64211;BME280;50528;48.514;14.394;2023-01-29T01:17:57;94613.34;;;-2.51;81.25
64211;BME280;50528;48.514;14.394;2023-01-29T01:18:31;94612.81;;;-2.51;81.10
64211;BME280;50528;48.514;14.394;2023-01-29T01:19:05;94610.55;;;-2.49;81.12
64211;BME280;50528;48.514;14.394;2023-01-29T01:19:39;94611.30;;;-2.48;81.00
64211;BME280;50528;48.514;14.394;2023-01-29T01:20:12;94605.35;;;-2.47;81.10
64211;BME280;50528;48.514;14.394;2023-01-29T01:20:46;94606.04;;;-2.47;81.01
64211;BME280;50528;48.514;14.394;2023-01-29T01:21:23;94600.95;;;-2.49;80.95
64211;BME280;50528;48.514;14.394;2023-01-29T01:21:57;94603.95;;;-2.46;81.24
64211;BME280;50528;48.514;14.394;2023-01-29T01:22:30;94600.96;;;-2.42;81.00
64211;BME280;50528;48.514;14.394;2023-01-29T01:23:04;94600.58;;;-2.45;80.98
64211;BME280;50528;48.514;14.394;2023-01-29T01:23:38;94597.96;;;-2.47;81.04
64211;BME280;50528;48.514;14.394;2023-01-29T01:24:12;94599.33;;;-2.47;81.06
64211;BME280;50528;48.514;14.394;2023-01-29T01:24:45;94593.29;;;-2.48;81.09
64211;BME280;50528;48.514;14.394;2023-01-29T01:25:20;94596.27;;;-2.45;81.08
64211;BME280;50528;48.514;14.394;2023-01-29T01:25:55;94597.48;;;-2.43;80.92
64211;BME280;50528;48.514;14.394;2023-01-29T01:26:29;94596.84;;;-2.46;81.00
64211;BME280;50528;48.514;14.394;2023-01-29T01:27:02;94595.13;;;-2.46;81.05
64211;BME280;50528;48.514;14.394;2023-01-29T01:27:36;94595.59;;;-2.45;81.11
64211;BME280;50528;48.514;14.394;2023-01-29T01:28:13;94596.56;;;-2.44;81.07
64211;BME280;50528;48.514;14.394;2023-01-29T01:28:46;94595.56;;;-2.45;81.22
64211;BME280;50528;48.514;14.394;2023-01-29T01:29:20;94592.67;;;-2.47;80.99
64211;BME280;50528;48.514;14.394;2023-01-29T01:29:53;94596.65;;;-2.42;80.97
64211;BME280;50528;48.514;14.394;2023-01-29T01:30:26;94597.13;;;-2.43;80.90
64211;BME280;50528;48.514;14.394;2023-01-29T01:31:10;94597.48;;;-2.43;80.84
64211;BME280;50528;48.514;14.394;2023-01-29T01:31:44;94597.28;;;-2.47;80.86
64211;BME280;50528;48.514;14.394;2023-01-29T01:32:18;94593.23;;;-2.51;80.71
64211;BME280;50528;48.514;14.394;2023-01-29T01:32:51;94587.84;;;-2.52;80.91
64211;BME280;50528;48.514;14.394;2023-01-29T01:33:25;94587.77;;;-2.53;80.97
64211;BME280;50528;48.514;14.394;2023-01-29T01:33:59;94590.96;;;-2.54;80.96
64211;BME280;50528;48.514;14.394;2023-01-29T01:34:32;94589.61;;;-2.54;81.07
64211;BME280;50528;48.514;14.394;2023-01-29T01:35:07;94587.86;;;-2.52;81.16
64211;BME280;50528;48.514;14.394;2023-01-29T01:35:41;94590.52;;;-2.48;81.17
64211;BME280;50528;48.514;14.394;2023-01-29T01:36:15;94590.90;;;-2.43;80.67
64211;BME280;50528;48.514;14.394;2023-01-29T01:36:49;94592.05;;;-2.49;80.82
64211;BME280;50528;48.514;14.394;2023-01-29T01:37:22;94594.66;;;-2.53;80.86
64211;BME280;50528;48.514;14.394;2023-01-29T01:37:56;94591.41;;;-2.58;80.90
64211;BME280;50528;48.514;14.394;2023-01-29T01:38:29;94591.44;;;-2.57;81.05
64211;BME280;50528;48.514;14.394;2023-01-29T01:39:03;94593.17;;;-2.57;80.96
64211;BME280;50528;48.514;14.394;2023-01-29T01:39:36;94592.48;;;-2.59;81.02
64211;BME280;50528;48.514;14.394;2023-01-29T01:40:15;94594.77;;;-2.58;80.78
64211;BME280;50528;48.514;14.394;2023-01-29T01:40:51;94591.38;;;-2.62;80.90
64211;BME280;50528;48.514;14.394;2023-01-29T01:41:24;94589.89;;;-2.66;81.09
64211;BME280;50528;48.514;14.394;2023-01-29T01:41:57;94594.80;;;-2.64;80.92
64211;BME280;50528;48.514;14.394;2023-01-29T01:42:31;94594.77;;;-2.63;81.18
64211;BME280;50528;48.514;14.394;2023-01-29T01:43:04;94597.05;;;-2.64;81.08
64211;BME280;50528;48.514;14.394;2023-01-29T01:44:06;94592.67;;;-2.61;80.96
64211;BME280;50528;48.514;14.394;2023-01-29T01:44:56;94591.65;;;-2.64;81.12
64211;BME280;50528;48.514;14.394;2023-01-29T01:45:33;94590.16;;;-2.67;81.19
64211;BME280;50528;48.514;14.394;2023-01-29T01:46:07;94589.51;;;-2.67;80.94
64211;BME280;50528;48.514;14.394;2023-01-29T01:46:41;94587.77;;;-2.67;81.07
64211;BME280;50528;48.514;14.394;2023-01-29T01:47:16;94586.39;;;-2.67;80.99
64211;BME280;50528;48.514;14.394;2023-01-29T01:48:38;94588.52;;;-2.75;81.09
64211;BME280;50528;48.514;14.394;2023-01-29T01:49:17;94585.63;;;-2.73;81.10
64211;BME280;50528;48.514;14.394;2023-01-29T01:49:52;94584.77;;;-2.75;81.36
64211;BME280;50528;48.514;14.394;2023-01-29T01:50:40;94588.91;;;-2.75;81.44
64211;BME280;50528;48.514;14.394;2023-01-29T01:51:15;94589.89;;;-2.75;81.72
64211;BME280;50528;48.514;14.394;2023-01-29T01:51:50;94589.10;;;-2.73;81.35
64211;BME280;50528;48.514;14.394;2023-01-29T01:52:24;94586.84;;;-2.73;81.30
64211;BME280;50528;48.514;14.394;2023-01-29T01:53:05;94592.66;;;-2.71;81.37
64211;BME280;50528;48.514;14.394;2023-01-29T01:53:47;94590.27;;;-2.70;81.52
64211;BME280;50528;48.514;14.394;2023-01-29T01:54:26;94591.76;;;-2.69;81.50
64211;BME280;50528;48.514;14.394;2023-01-29T01:55:01;94594.81;;;-2.67;81.32
64211;BME280;50528;48.514;14.394;2023-01-29T01:55:43;94595.68;;;-2.67;81.31
64211;BME280;50528;48.514;14.394;2023-01-29T01:56:22;94595.65;;;-2.67;81.37
64211;BME280;50528;48.514;14.394;2023-01-29T01:57:07;94596.65;;;-2.66;81.38
64211;BME280;50528;48.514;14.394;2023-01-29T01:57:51;94605.64;;;-2.64;81.43
64211;BME280;50528;48.514;14.394;2023-01-29T01:58:36;94605.22;;;-2.63;81.52
64211;BME280;50528;48.514;14.394;2023-01-29T01:59:14;94606.14;;;-2.62;81.48
64211;BME280;50528;48.514;14.394;2023-01-29T01:59:54;94607.81;;;-2.62;81.34
64211;BME280;50528;48.514;14.394;2023-01-29T02:00:28;94608.66;;;-2.61;81.56
64211;BME280;50528;48.514;14.394;2023-01-29T02:01:06;94607.85;;;-2.60;81.45
64211;BME280;50528;48.514;14.394;2023-01-29T02:01:43;94604.81;;;-2.59;81.43
64211;BME280;50528;48.514;14.394;2023-01-29T02:02:20;94604.39;;;-2.58;81.49
64211;BME280;50528;48.514;14.394;2023-01-29T02:03:13;94605.23;;;-2.58;81.51
64211;BME280;50528;48.514;14.394;2023-01-29T02:14:38;94619.67;;;-2.07;80.72
64211;BME280;50528;48.514;14.394;2023-01-29T02:15:12;94621.72;;;-2.02;79.90
64211;BME280;50528;48.514;14.394;2023-01-29T02:15:46;94620.83;;;-2.07;80.23
64211;BME280;50528;48.514;14.394;2023-01-29T02:16:21;94622.33;;;-2.09;80.15
64211;BME280;50528;48.514;14.394;2023-01-29T02:16:55;94624.56;;;-2.09;80.04
64211;BME280;50528;48.514;14.394;2023-01-29T02:17:29;94627.52;;;-2.11;80.16
64211;BME280;50528;48.514;14.394;2023-01-29T02:18:04;94624.27;;;-2.12;80.43
64211;BME280;50528;48.514;14.394;2023-01-29T02:18:38;94625.97;;;-2.12;80.35
64211;BME280;50528;48.514;14.394;2023-01-29T02:20:20;94622.15;;;-2.14;80.16
64211;BME280;50528;48.514;14.394;2023-01-29T02:23:19;94618.98;;;-2.30;80.47
64211;BME280;50528;48.514;14.394;2023-01-29T02:24:22;94612.31;;;-2.34;80.61
64211;BME280;50528;48.514;14.394;2023-01-29T02:28:05;94615.14;;;-2.41;80.76
64211;BME280;50528;48.514;14.394;2023-01-29T02:30:39;94607.65;;;-2.46;80.90
64211;BME280;50528;48.514;14.394;2023-01-29T02:31:42;94608.06;;;-2.47;80.86
64211;BME280;50528;48.514;14.394;2023-01-29T02:35:37;94623.79;;;-2.57;80.88
64211;BME280;50528;48.514;14.394;2023-01-29T02:37:08;94620.04;;;-2.57;81.02
64211;BME280;50528;48.514;14.394;2023-01-29T02:38:41;94615.63;;;-2.55;80.89
64211;BME280;50528;48.514;14.394;2023-01-29T02:40:23;94610.62;;;-2.57;81.00
64211;BME280;50528;48.514;14.394;2023-01-29T02:41:33;94614.83;;;-2.58;81.25
64211;BME280;50528;48.514;14.394;2023-01-29T02:45:23;94623.48;;;-2.57;81.14
64211;BME280;50528;48.514;14.394;2023-01-29T02:47:59;94616.53;;;-2.54;81.24
64211;BME280;50528;48.514;14.394;2023-01-29T02:48:43;94614.60;;;-2.55;81.40
64211;BME280;50528;48.514;14.394;2023-01-29T02:49:40;94593.02;;;-2.72;80.93
64211;BME280;50528;48.514;14.394;2023-01-29T02:52:21;94616.84;;;-2.63;81.22
64211;BME280;50528;48.514;14.394;2023-01-29T02:53:26;94618.89;;;-2.64;81.27
64211;BME280;50528;48.514;14.394;2023-01-29T02:55:23;94609.23;;;-2.76;81.14
64211;BME280;50528;48.514;14.394;2023-01-29T02:56:37;94612.63;;;-2.74;81.19
64211;BME280;50528;48.514;14.394;2023-01-29T02:57:25;94612.53;;;-2.78;81.58
64211;BME280;50528;48.514;14.394;2023-01-29T02:58:29;94617.84;;;-2.78;81.59
64211;BME280;50528;48.514;14.394;2023-01-29T02:59:25;94615.89;;;-2.79;81.39
64211;BME280;50528;48.514;14.394;2023-01-29T03:00:04;94614.43;;;-2.78;81.50
64211;BME280;50528;48.514;14.394;2023-01-29T03:01:03;94616.23;;;-2.77;81.62
64211;BME280;50528;48.514;14.394;2023-01-29T03:01:52;94622.05;;;-2.76;81.46
64211;BME280;50528;48.514;14.394;2023-01-29T03:03:02;94619.42;;;-2.75;81.69
64211;BME280;50528;48.514;14.394;2023-01-29T03:03:56;94618.61;;;-2.74;81.71
64211;BME280;50528;48.514;14.394;2023-01-29T03:04:44;94615.71;;;-2.72;81.56
64211;BME280;50528;48.514;14.394;2023-01-29T03:05:30;94614.98;;;-2.70;81.67
64211;BME280;50528;48.514;14.394;2023-01-29T03:06:17;94616.27;;;-2.69;81.56
64211;BME280;50528;48.514;14.394;2023-01-29T03:07:00;94612.26;;;-2.68;81.58
64211;BME280;50528;48.514;14.394;2023-01-29T03:07:55;94607.19;;;-2.67;81.61
64211;BME280;50528;48.514;14.394;2023-01-29T03:08:42;94604.86;;;-2.68;81.11
64211;BME280;50528;48.514;14.394;2023-01-29T03:09:19;94608.64;;;-2.71;81.28
64211;BME280;50528;48.514;14.394;2023-01-29T03:09:57;94600.46;;;-2.75;81.29
64211;BME280;50528;48.514;14.394;2023-01-29T03:11:06;94611.38;;;-2.71;81.44
64211;BME280;50528;48.514;14.394;2023-01-29T03:12:01;94603.77;;;-2.73;81.76
64211;BME280;50528;48.514;14.394;2023-01-29T03:13:05;94605.06;;;-2.72;81.30
64211;BME280;50528;48.514;14.394;2023-01-29T03:13:57;94603.95;;;-2.73;81.22
64211;BME280;50528;48.514;14.394;2023-01-29T03:15:01;94600.90;;;-2.73;81.50
64211;BME280;50528;48.514;14.394;2023-01-29T03:17:11;94597.36;;;-2.76;81.34
64211;BME280;50528;48.514;14.394;2023-01-29T03:18:06;94597.71;;;-2.77;81.43
64211;BME280;50528;48.514;14.394;2023-01-29T03:18:55;94600.19;;;-2.78;81.48
64211;BME280;50528;48.514;14.394;2023-01-29T03:19:37;94595.14;;;-2.81;81.43
64211;BME280;50528;48.514;14.394;2023-01-29T03:20:29;94596.94;;;-2.78;81.47
64211;BME280;50528;48.514;14.394;2023-01-29T03:46:40;94575.88;;;-2.56;81.01
64211;BME280;50528;48.514;14.394;2023-01-29T03:47:25;94582.66;;;-2.53;81.17
64211;BME280;50528;48.514;14.394;2023-01-29T03:50:53;94586.06;;;-2.58;81.45
64211;BME280;50528;48.514;14.394;2023-01-29T03:53:23;94583.24;;;-2.65;81.45
64211;BME280;50528;48.514;14.394;2023-01-29T03:54:29;94598.16;;;-2.59;81.45
64211;BME280;50528;48.514;14.394;2023-01-29T03:55:16;94600.80;;;-2.60;81.26
64211;BME280;50528;48.514;14.394;2023-01-29T03:56:22;94601.57;;;-2.59;81.46
64211;BME280;50528;48.514;14.394;2023-01-29T03:58:33;94589.09;;;-2.64;81.46
64211;BME280;50528;48.514;14.394;2023-01-29T04:00:38;94595.77;;;-2.66;81.54
64211;BME280;50528;48.514;14.394;2023-01-29T04:01:24;94601.21;;;-2.61;81.54
64211;BME280;50528;48.514;14.394;2023-01-29T04:02:18;94602.48;;;-2.59;81.37
64211;BME280;50528;48.514;14.394;2023-01-29T04:04:30;94604.59;;;-2.60;81.39
64211;BME280;50528;48.514;14.394;2023-01-29T04:05:21;94605.81;;;-2.62;81.30
64211;BME280;50528;48.514;14.394;2023-01-29T04:06:31;94601.65;;;-2.63;81.47
64211;BME280;50528;48.514;14.394;2023-01-29T04:07:20;94603.38;;;-2.64;81.59
64211;BME280;50528;48.514;14.394;2023-01-29T04:08:25;94600.54;;;-2.62;81.42
64211;BME280;50528;48.514;14.394;2023-01-29T04:09:20;94601.97;;;-2.63;81.57
64211;BME280;50528;48.514;14.394;2023-01-29T04:10:21;94594.67;;;-2.62;81.54
64211;BME280;50528;48.514;14.394;2023-01-29T04:11:17;94594.54;;;-2.63;81.60
64211;BME280;50528;48.514;14.394;2023-01-29T04:12:01;94596.58;;;-2.60;81.57
64211;BME280;50528;48.514;14.394;2023-01-29T04:12:52;94592.31;;;-2.62;81.55
64211;BME280;50528;48.514;14.394;2023-01-29T04:13:46;94596.38;;;-2.59;81.65
64211;BME280;50528;48.514;14.394;2023-01-29T04:14:25;94597.86;;;-2.58;81.38
64211;BME280;50528;48.514;14.394;2023-01-29T04:15:10;94598.54;;;-2.56;81.51
64211;BME280;50528;48.514;14.394;2023-01-29T04:15:55;94600.69;;;-2.55;81.54
64211;BME280;50528;48.514;14.394;2023-01-29T04:16:59;94600.98;;;-2.60;81.62
64211;BME280;50528;48.514;14.394;2023-01-29T04:17:52;94589.14;;;-2.67;81.49
64211;BME280;50528;48.514;14.394;2023-01-29T04:18:47;94601.58;;;-2.59;81.50
64211;BME280;50528;48.514;14.394;2023-01-29T04:19:27;94587.14;;;-2.66;81.54
64211;BME280;50528;48.514;14.394;2023-01-29T04:20:25;94595.42;;;-2.58;81.49
64211;BME280;50528;48.514;14.394;2023-01-29T04:21:02;94595.55;;;-2.57;81.37
64211;BME280;50528;48.514;14.394;2023-01-29T04:21:49;94593.77;;;-2.58;81.53
64211;BME280;50528;48.514;14.394;2023-01-29T04:22:33;94593.85;;;-2.57;81.53
64211;BME280;50528;48.514;14.394;2023-01-29T04:23:21;94593.16;;;-2.56;81.52
64211;BME280;50528;48.514;14.394;2023-01-29T04:23:56;94592.08;;;-2.55;81.53
64211;BME280;50528;48.514;14.394;2023-01-29T04:24:38;94588.80;;;-2.53;81.51
64211;BME280;50528;48.514;14.394;2023-01-29T04:25:34;94588.42;;;-2.53;81.71
64211;BME280;50528;48.514;14.394;2023-01-29T04:28:21;94598.58;;;-2.53;81.46
64211;BME280;50528;48.514;14.394;2023-01-29T04:29:24;94595.08;;;-2.54;81.45
64211;BME280;50528;48.514;14.394;2023-01-29T04:30:38;94596.52;;;-2.55;81.35
64211;BME280;50528;48.514;14.394;2023-01-29T04:31:22;94597.15;;;-2.56;81.46
64211;BME280;50528;48.514;14.394;2023-01-29T04:32:24;94600.48;;;-2.55;81.55
64211;BME280;50528;48.514;14.394;2023-01-29T04:33:36;94597.42;;;-2.55;81.54
64211;BME280;50528;48.514;14.394;2023-01-29T04:34:27;94593.14;;;-2.57;81.39
64211;BME280;50528;48.514;14.394;2023-01-29T04:35:23;94592.14;;;-2.57;81.51
64211;BME280;50528;48.514;14.394;2023-01-29T04:37:38;94594.91;;;-2.59;81.20
64211;BME280;50528;48.514;14.394;2023-01-29T04:39:19;94593.14;;;-2.62;81.55
64211;BME280;50528;48.514;14.394;2023-01-29T04:40:00;94585.58;;;-2.64;81.35
64211;BME280;50528;48.514;14.394;2023-01-29T04:42:31;94583.20;;;-2.59;81.61
64211;BME280;50528;48.514;14.394;2023-01-29T04:43:28;94584.10;;;-2.58;81.45
64211;BME280;50528;48.514;14.394;2023-01-29T04:46:30;94583.45;;;-2.56;81.49
64211;BME280;50528;48.514;14.394;2023-01-29T04:47:32;94582.50;;;-2.57;81.57
64211;BME280;50528;48.514;14.394;2023-01-29T04:48:18;94583.45;;;-2.56;81.43
64211;BME280;50528;48.514;14.394;2023-01-29T04:51:30;94571.31;;;-2.65;81.35
64211;BME280;50528;48.514;14.394;2023-01-29T04:53:14;94584.47;;;-2.56;81.53
64211;BME280;50528;48.514;14.394;2023-01-29T04:54:15;94588.45;;;-2.55;81.44
64211;BME280;50528;48.514;14.394;2023-01-29T04:56:23;94587.29;;;-2.55;81.65
64211;BME280;50528;48.514;14.394;2023-01-29T04:57:13;94585.34;;;-2.56;81.40
64211;BME280;50528;48.514;14.394;2023-01-29T04:58:43;94588.73;;;-2.54;81.55